createdAt,value
2023-02-25T00:01:15.032Z,100854.53
2023-02-25T00:03:44.556Z,100849.19
2023-02-25T00:06:14.650Z,100851.97
2023-02-25T00:08:45.413Z,100863.38
2023-02-25T00:11:14.877Z,100852.44
2023-02-25T00:13:44.472Z,100843.44
2023-02-25T00:16:13.993Z,100852.72
2023-02-25T00:18:44.466Z,100853.47
2023-02-25T00:21:16.053Z,100847.53
2023-02-25T00:23:45.596Z,100850.69
2023-02-25T00:26:13.926Z,100850.59
2023-02-25T00:28:41.962Z,100854.03
2023-02-25T00:31:11.900Z,100847.03
2023-02-25T00:33:42.041Z,100852.38
2023-02-25T00:36:13.035Z,100850.78
2023-02-25T00:38:42.163Z,100853.56
2023-02-25T00:41:12.612Z,100851.94
2023-02-25T00:43:42.292Z,100848.97
2023-02-25T00:46:10.650Z,100850.44
2023-02-25T00:48:38.956Z,100863.19
2023-02-25T00:51:09.018Z,100853.13
2023-02-25T00:53:37.846Z,100851.00
2023-02-25T00:56:09.448Z,100846.59
2023-02-25T00:58:37.573Z,100862.53
2023-02-25T01:01:07.018Z,100860.03
2023-02-25T01:03:35.022Z,100855.44
2023-02-25T01:06:03.000Z,100853.81
2023-02-25T01:08:31.006Z,100866.56
2023-02-25T01:10:58.829Z,100870.22
2023-02-25T01:13:28.025Z,100870.03
2023-02-25T01:15:55.847Z,100869.03
2023-02-25T01:18:24.266Z,100866.47
2023-02-25T01:20:52.066Z,100875.19
2023-02-25T01:23:19.849Z,100880.38
2023-02-25T01:25:47.561Z,100873.06
2023-02-25T01:28:15.366Z,100881.69
2023-02-25T01:30:45.657Z,100873.84
2023-02-25T01:33:13.459Z,100876.91
2023-02-25T01:35:41.222Z,100859.91
2023-02-25T01:38:09.001Z,100875.63
2023-02-25T01:40:37.846Z,100876.78
2023-02-25T01:43:07.748Z,100878.63
2023-02-25T01:45:36.713Z,100876.41
2023-02-25T01:48:10.858Z,100872.94
2023-02-25T01:50:46.155Z,100868.44
2023-02-25T01:53:14.272Z,100874.66
2023-02-25T01:55:43.566Z,100868.63
2023-02-25T01:58:13.681Z,100868.91
2023-02-25T02:00:41.955Z,100873.72
2023-02-25T02:03:16.070Z,100877.47
2023-02-25T02:06:02.398Z,100867.88
2023-02-25T02:08:30.785Z,100871.41
2023-02-25T02:10:58.962Z,100868.72
2023-02-25T02:13:27.224Z,100864.31
2023-02-25T02:16:14.464Z,100864.53
2023-02-25T02:18:50.251Z,100862.59
2023-02-25T02:21:37.092Z,100867.88
2023-02-25T02:24:55.335Z,100864.97
2023-02-25T02:27:27.349Z,100866.59
2023-02-25T02:30:17.331Z,100867.28
2023-02-25T02:32:53.636Z,100868.22
2023-02-25T02:35:26.340Z,100871.78
2023-02-25T02:38:04.344Z,100873.41
2023-02-25T02:40:44.623Z,100875.22
2023-02-25T02:43:25.622Z,100875.34
2023-02-25T02:46:00.436Z,100872.47
2023-02-25T02:48:37.535Z,100868.22
2023-02-25T02:51:12.952Z,100867.28
2023-02-25T02:53:45.373Z,100870.34
2023-02-25T02:56:15.860Z,100873.59
2023-02-25T02:58:48.027Z,100869.81
2023-02-25T03:01:22.149Z,100883.50
2023-02-25T03:03:54.347Z,100882.63
2023-02-25T03:06:24.833Z,100888.66
2023-02-25T03:08:57.712Z,100891.16
2023-02-25T03:11:26.949Z,100898.34
2023-02-25T03:13:54.745Z,100894.75
2023-02-25T03:16:28.976Z,100899.94
2023-02-25T03:19:04.437Z,100901.59
2023-02-25T03:21:37.521Z,100894.38
2023-02-25T03:24:09.894Z,100888.84
2023-02-25T03:26:42.792Z,100886.34
2023-02-25T03:29:17.984Z,100891.81
2023-02-25T03:31:50.217Z,100896.00
2023-02-25T03:34:23.956Z,100893.72
2023-02-25T03:36:58.023Z,100889.22
2023-02-25T03:39:29.137Z,100892.09
2023-02-25T03:42:03.692Z,100891.44
2023-02-25T03:44:34.310Z,100900.34
2023-02-25T03:47:05.740Z,100897.75
2023-02-25T03:49:41.573Z,100912.25
2023-02-25T03:52:14.841Z,100896.69
2023-02-25T03:54:42.649Z,100895.94
2023-02-25T03:57:10.719Z,100892.00
2023-02-25T03:59:38.489Z,100888.47
2023-02-25T04:02:06.838Z,100896.03
2023-02-25T04:04:39.023Z,100894.31
2023-02-25T04:07:06.799Z,100903.91
2023-02-25T04:09:34.607Z,100899.69
2023-02-25T04:12:02.354Z,100905.06
2023-02-25T04:14:30.108Z,100902.06
2023-02-25T04:17:00.827Z,100902.84
2023-02-25T04:19:28.674Z,100904.00
2023-02-25T04:21:57.813Z,100901.50
2023-02-25T04:24:25.589Z,100900.81
2023-02-25T04:26:58.344Z,100904.41
2023-02-25T04:29:26.641Z,100905.13
2023-02-25T04:31:54.772Z,100900.81
2023-02-25T04:34:23.061Z,100909.75
2023-02-25T04:36:50.828Z,100916.94
2023-02-25T04:39:20.165Z,100921.53
2023-02-25T04:41:48.000Z,100921.25
2023-02-25T04:44:15.758Z,100932.00
2023-02-25T04:46:44.169Z,100944.69
2023-02-25T04:49:12.262Z,100950.50
2023-02-25T04:51:42.509Z,100947.06
2023-02-25T04:54:10.265Z,100947.94
2023-02-25T04:56:40.284Z,100938.16
2023-02-25T04:59:11.369Z,100945.94
2023-02-25T05:01:39.318Z,100945.81
2023-02-25T05:04:07.683Z,100938.94
2023-02-25T05:06:35.788Z,100940.06
2023-02-25T05:09:03.948Z,100938.53
2023-02-25T05:11:31.738Z,100932.09
2023-02-25T05:14:00.916Z,100939.09
2023-02-25T05:16:28.772Z,100941.13
2023-02-25T05:18:57.026Z,100943.03
2023-02-25T05:21:29.369Z,100950.22
2023-02-25T05:23:57.210Z,100948.69
2023-02-25T05:26:26.310Z,100951.38
2023-02-25T05:28:56.125Z,100941.78
2023-02-25T05:31:26.178Z,100940.66
2023-02-25T05:33:54.511Z,100942.66
2023-02-25T05:36:25.291Z,100948.88
2023-02-25T05:38:55.157Z,100948.41
2023-02-25T05:41:23.285Z,100945.63
2023-02-25T05:43:51.066Z,100948.47
2023-02-25T05:46:18.823Z,100949.34
2023-02-25T05:48:48.901Z,100945.78
2023-02-25T05:51:18.938Z,100942.25
2023-02-25T05:53:48.047Z,100952.22
2023-02-25T05:56:18.711Z,100945.78
2023-02-25T05:58:48.433Z,100945.22
2023-02-25T06:01:18.085Z,100949.63
2023-02-25T06:03:48.904Z,100950.41
2023-02-25T06:06:18.162Z,100949.06
2023-02-25T06:08:46.011Z,100947.16
2023-02-25T06:11:18.303Z,100946.00
2023-02-25T06:13:46.124Z,100946.09
2023-02-25T06:16:14.661Z,100946.38
2023-02-25T06:18:42.592Z,100946.75
2023-02-25T06:21:14.182Z,100948.38
2023-02-25T06:23:43.626Z,100955.91
2023-02-25T06:26:13.155Z,100963.22
2023-02-25T06:28:41.214Z,100958.97
2023-02-25T06:31:10.356Z,100960.53
2023-02-25T06:33:39.275Z,100971.34
2023-02-25T06:36:08.002Z,100975.06
2023-02-25T06:38:37.581Z,100966.97
2023-02-25T06:41:07.537Z,100966.84
2023-02-25T06:43:35.752Z,100968.66
2023-02-25T06:46:07.838Z,100980.75
2023-02-25T06:48:35.925Z,100986.19
2023-02-25T06:51:09.049Z,100986.78
2023-02-25T06:53:38.766Z,100987.66
2023-02-25T06:56:08.263Z,100976.81
2023-02-25T06:58:36.504Z,100985.06
2023-02-25T07:01:07.375Z,100990.81
2023-02-25T07:03:35.257Z,100984.50
2023-02-25T07:06:03.055Z,100993.31
2023-02-25T07:08:31.048Z,100987.75
2023-02-25T07:11:13.411Z,100997.47
2023-02-25T07:13:43.879Z,101000.53
2023-02-25T07:16:11.811Z,101004.84
2023-02-25T07:18:40.578Z,101020.97
2023-02-25T07:21:08.624Z,101016.66
2023-02-25T07:23:36.486Z,101021.16
2023-02-25T07:26:07.177Z,101018.50
2023-02-25T07:28:35.648Z,101020.81
2023-02-25T07:31:04.492Z,101016.97
2023-02-25T07:33:32.651Z,101020.44
2023-02-25T07:36:00.377Z,101024.56
2023-02-25T07:38:28.235Z,101025.31
2023-02-25T07:40:56.625Z,101036.47
2023-02-25T07:43:25.903Z,101029.00
2023-02-25T07:45:53.741Z,101039.56
2023-02-25T07:48:21.494Z,101036.88
2023-02-25T07:50:49.344Z,101040.41
2023-02-25T07:53:17.285Z,101043.78
2023-02-25T07:55:45.662Z,101049.06
2023-02-25T07:58:14.082Z,101041.59
2023-02-25T08:00:45.789Z,101041.59
2023-02-25T08:03:13.709Z,101045.81
2023-02-25T08:05:41.458Z,101044.09
2023-02-25T08:08:09.238Z,101047.28
2023-02-25T08:10:38.299Z,101055.03
2023-02-25T08:13:05.997Z,101053.91
2023-02-25T08:15:33.775Z,101057.84
2023-02-25T08:18:03.503Z,101061.38
2023-02-25T08:20:31.263Z,101063.50
2023-02-25T08:22:59.157Z,101075.03
2023-02-25T08:25:27.145Z,101070.88
2023-02-25T08:27:54.968Z,101068.28
2023-02-25T08:30:22.895Z,101079.41
2023-02-25T08:32:50.769Z,101069.16
2023-02-25T08:35:20.153Z,101074.97
2023-02-25T08:37:47.946Z,101079.00
2023-02-25T08:40:16.889Z,101068.28
2023-02-25T08:42:45.794Z,101077.50
2023-02-25T08:45:13.886Z,101071.06
2023-02-25T08:47:41.642Z,101077.75
2023-02-25T08:50:10.933Z,101074.25
2023-02-25T08:52:42.349Z,101075.69
2023-02-25T08:55:14.882Z,101076.97
2023-02-25T08:57:43.186Z,101086.19
2023-02-25T09:00:15.167Z,101093.50
2023-02-25T09:02:44.889Z,101077.22
2023-02-25T09:05:12.697Z,101092.22
2023-02-25T09:07:41.817Z,101079.91
2023-02-25T09:10:12.760Z,101086.94
2023-02-25T09:12:42.253Z,101091.09
2023-02-25T09:15:11.248Z,101091.97
2023-02-25T09:17:39.101Z,101104.16
2023-02-25T09:20:11.187Z,101132.69
2023-02-25T09:22:40.159Z,101123.03
2023-02-25T09:25:09.599Z,101129.78
2023-02-25T09:27:37.492Z,101120.94
2023-02-25T09:30:06.268Z,101125.41
2023-02-25T09:32:34.219Z,101131.94
2023-02-25T09:35:06.987Z,101136.25
2023-02-25T09:37:34.890Z,101136.25
2023-02-25T09:40:03.883Z,101125.81
2023-02-25T09:42:45.533Z,101133.25
2023-02-25T09:45:19.968Z,101143.66
2023-02-25T09:47:55.095Z,101149.53
2023-02-25T09:50:26.668Z,101155.34
2023-02-25T09:53:02.800Z,101162.28
2023-02-25T09:55:33.794Z,101156.03
2023-02-25T09:58:09.900Z,101156.81
2023-02-25T10:00:43.969Z,101150.16
2023-02-25T10:03:21.849Z,101154.75
2023-02-25T10:05:58.103Z,101163.28
2023-02-25T10:08:32.499Z,101169.13
2023-02-25T10:11:07.300Z,101173.50
2023-02-25T10:13:47.225Z,101182.72
2023-02-25T10:16:30.166Z,101184.81
2023-02-25T10:19:09.156Z,101182.00
2023-02-25T10:21:52.022Z,101194.78
2023-02-25T10:24:30.011Z,101186.19
2023-02-25T10:27:04.059Z,101201.06
2023-02-25T10:29:39.896Z,101212.06
2023-02-25T10:32:18.462Z,101208.88
2023-02-25T10:34:46.778Z,101206.38
2023-02-25T10:37:22.478Z,101211.13
2023-02-25T10:39:55.616Z,101212.66
2023-02-25T10:42:23.542Z,101209.66
2023-02-25T10:44:53.816Z,101208.38
2023-02-25T10:47:30.226Z,101212.94
2023-02-25T10:50:27.544Z,101217.81
2023-02-25T10:53:04.197Z,101219.75
2023-02-25T10:55:51.430Z,101213.25
2023-02-25T10:58:31.999Z,101208.91
2023-02-25T11:01:04.742Z,101214.25
2023-02-25T11:03:36.430Z,101215.03
2023-02-25T11:06:22.733Z,101221.91
2023-02-25T11:08:52.245Z,101225.59
2023-02-25T11:11:23.177Z,101221.31
2023-02-25T11:14:03.205Z,101222.91
2023-02-25T11:16:36.506Z,101226.91
2023-02-25T11:19:15.022Z,101233.63
2023-02-25T11:21:43.378Z,101237.28
2023-02-25T11:24:16.061Z,101233.72
2023-02-25T11:26:46.318Z,101237.38
2023-02-25T11:29:18.698Z,101244.94
2023-02-25T11:31:52.118Z,101243.31
2023-02-25T11:34:23.780Z,101244.75
2023-02-25T11:36:59.936Z,101238.13
2023-02-25T11:39:30.894Z,101238.03
2023-02-25T11:42:02.839Z,101251.72
2023-02-25T11:44:40.950Z,101261.69
2023-02-25T11:47:23.057Z,101261.97
2023-02-25T11:50:05.344Z,101265.47
2023-02-25T11:52:40.331Z,101273.66
2023-02-25T11:55:19.385Z,101272.69
2023-02-25T11:57:58.615Z,101295.69
2023-02-25T12:00:33.408Z,101282.28
2023-02-25T12:03:28.444Z,101257.75
2023-02-25T12:06:25.422Z,101256.69
2023-02-25T12:09:29.260Z,101255.84
2023-02-25T12:12:26.569Z,101256.31
2023-02-25T12:15:36.163Z,101262.16
2023-02-25T12:18:50.259Z,101256.19
2023-02-25T12:21:57.433Z,101260.78
2023-02-25T12:24:46.280Z,101264.34
2023-02-25T12:27:47.704Z,101265.50
2023-02-25T12:30:50.617Z,101268.69
2023-02-25T12:33:43.860Z,101260.03
2023-02-25T12:39:47.985Z,101263.75
2023-02-25T12:42:40.010Z,101267.09
2023-02-25T12:45:24.573Z,101273.03
2023-02-25T12:48:10.014Z,101274.00
2023-02-25T12:50:57.329Z,101279.63
2023-02-25T12:53:45.353Z,101265.91
2023-02-25T12:56:53.404Z,101274.63
2023-02-25T12:59:39.661Z,101275.59
2023-02-25T13:02:28.829Z,101281.22
2023-02-25T13:05:22.530Z,101275.09
2023-02-25T13:08:10.544Z,101275.63
2023-02-25T13:11:00.089Z,101281.22
2023-02-25T13:14:22.262Z,101288.53
2023-02-25T13:17:22.297Z,101296.06
2023-02-25T13:20:18.708Z,101301.50
2023-02-25T13:23:04.255Z,101298.06
2023-02-25T13:25:48.082Z,101306.50
2023-02-25T13:28:27.496Z,101296.13
2023-02-25T13:31:00.361Z,101293.97
2023-02-25T13:33:46.380Z,101289.75
2023-02-25T13:36:34.304Z,101294.53
2023-02-25T13:39:23.711Z,101301.22
2023-02-25T13:42:10.143Z,101311.34
2023-02-25T13:44:51.606Z,101302.94
2023-02-25T13:47:38.976Z,101302.91
2023-02-25T13:50:32.906Z,101305.63
2023-02-25T13:53:13.213Z,101315.53
2023-02-25T13:56:00.621Z,101313.91
2023-02-25T13:58:45.976Z,101315.34
2023-02-25T14:01:45.280Z,101323.78
2023-02-25T14:04:46.199Z,101339.50
2023-02-25T14:07:46.880Z,101334.16
2023-02-25T14:10:30.474Z,101346.81
2023-02-25T14:13:26.807Z,101339.06
2023-02-25T14:16:07.372Z,101345.31
2023-02-25T14:18:54.062Z,101334.72
2023-02-25T14:21:51.781Z,101342.06
2023-02-25T14:24:28.967Z,101342.56
2023-02-25T14:27:12.500Z,101345.78
2023-02-25T14:29:54.872Z,101345.59
2023-02-25T14:32:39.567Z,101350.34
2023-02-25T14:35:22.613Z,101350.09
2023-02-25T14:38:00.786Z,101352.81
2023-02-25T14:40:41.170Z,101354.25
2023-02-25T14:43:32.269Z,101373.69
2023-02-25T14:46:10.785Z,101373.53
2023-02-25T14:48:45.591Z,101370.06
2023-02-25T14:51:50.118Z,101387.25
2023-02-25T14:54:49.187Z,101385.03
2023-02-25T14:57:41.482Z,101381.69
2023-02-25T15:00:30.237Z,101384.88
2023-02-25T15:03:29.723Z,101391.16
2023-02-25T15:06:15.271Z,101393.06
2023-02-25T15:09:19.207Z,101399.19
2023-02-25T15:12:07.022Z,101409.25
2023-02-25T15:14:49.283Z,101408.19
2023-02-25T15:17:55.863Z,101428.41
2023-02-25T15:20:39.046Z,101416.78
2023-02-25T15:23:37.152Z,101425.69
2023-02-25T15:26:22.692Z,101428.41
2023-02-25T15:28:51.322Z,101436.19
2023-02-25T15:31:30.967Z,101442.06
2023-02-25T15:34:32.780Z,101438.59
2023-02-25T15:37:30.182Z,101438.03
2023-02-25T15:40:00.186Z,101449.59
2023-02-25T15:42:56.689Z,101450.44
2023-02-25T15:45:42.215Z,101449.09
2023-02-25T15:48:34.028Z,101455.31
2023-02-25T15:51:04.103Z,101449.28
2023-02-25T15:53:46.154Z,101469.78
2023-02-25T15:56:49.370Z,101465.16
2023-02-25T15:59:42.228Z,101469.75
2023-02-25T16:02:33.375Z,101470.50
2023-02-25T16:05:02.834Z,101474.25
2023-02-25T16:07:35.208Z,101480.25
2023-02-25T16:10:10.461Z,101486.59
2023-02-25T16:12:39.294Z,101487.13
2023-02-25T16:15:08.505Z,101498.88
2023-02-25T16:17:37.248Z,101498.19
2023-02-25T16:20:18.081Z,101498.41
2023-02-25T16:22:48.725Z,101509.28
2023-02-25T16:25:25.195Z,101504.84
2023-02-25T16:28:02.380Z,101506.06
2023-02-25T16:30:41.466Z,101507.00
2023-02-25T16:33:20.535Z,101517.19
2023-02-25T16:36:02.652Z,101518.25
2023-02-25T16:38:42.538Z,101526.56
2023-02-25T16:41:14.251Z,101517.53
2023-02-25T16:43:43.940Z,101521.19
2023-02-25T16:46:14.979Z,101537.44
2023-02-25T16:48:50.265Z,101542.13
2023-02-25T16:51:25.452Z,101542.72
2023-02-25T16:53:57.934Z,101542.56
2023-02-25T16:56:29.789Z,101548.91
2023-02-25T16:59:05.940Z,101552.44
2023-02-25T17:01:36.451Z,101559.13
2023-02-25T17:04:15.417Z,101553.38
2023-02-25T17:06:43.887Z,101548.88
2023-02-25T17:09:24.614Z,101560.00
2023-02-25T17:11:56.685Z,101567.97
2023-02-25T17:14:26.256Z,101560.25
2023-02-25T17:16:54.432Z,101560.34
2023-02-25T17:19:24.654Z,101565.78
2023-02-25T17:21:55.050Z,101569.59
2023-02-25T17:24:28.436Z,101576.97
2023-02-25T17:26:58.284Z,101577.06
2023-02-25T17:29:34.952Z,101572.00
2023-02-25T17:32:14.906Z,101577.72
2023-02-25T17:34:43.385Z,101587.84
2023-02-25T17:37:13.990Z,101592.34
2023-02-25T17:39:44.231Z,101592.34
2023-02-25T17:42:35.514Z,101596.41
2023-02-25T17:45:07.214Z,101598.63
2023-02-25T17:47:38.087Z,101594.50
2023-02-25T17:50:23.013Z,101596.66
2023-02-25T17:52:51.607Z,101596.81
2023-02-25T17:55:25.484Z,101611.28
2023-02-25T17:57:57.156Z,101608.75
2023-02-25T18:00:27.477Z,101613.50
2023-02-25T18:03:13.165Z,101626.22
2023-02-25T18:05:51.295Z,101618.94
2023-02-25T18:08:21.806Z,101620.69
2023-02-25T18:10:55.124Z,101626.13
2023-02-25T18:13:29.177Z,101635.13
2023-02-25T18:16:38.486Z,101632.78
2023-02-25T18:19:34.122Z,101633.88
2023-02-25T18:22:01.955Z,101640.19
2023-02-25T18:24:33.123Z,101642.78
2023-02-25T18:27:03.729Z,101649.91
2023-02-25T18:29:33.856Z,101658.91
2023-02-25T18:32:01.873Z,101660.75
2023-02-25T18:34:30.418Z,101665.75
2023-02-25T18:36:58.223Z,101671.13
2023-02-25T18:39:27.640Z,101672.09
2023-02-25T18:41:57.972Z,101674.81
2023-02-25T18:44:25.716Z,101675.78
2023-02-25T18:46:54.868Z,101685.94
2023-02-25T18:49:22.723Z,101679.84
2023-02-25T18:51:52.426Z,101689.03
2023-02-25T18:54:20.192Z,101689.16
2023-02-25T18:56:48.165Z,101688.28
2023-02-25T18:59:15.941Z,101696.25
2023-02-25T19:01:45.277Z,101693.00
2023-02-25T19:04:17.575Z,101702.00
2023-02-25T19:06:46.720Z,101699.25
2023-02-25T19:09:14.889Z,101698.34
2023-02-25T19:11:45.507Z,101707.28
2023-02-25T19:14:19.697Z,101704.81
2023-02-25T19:16:47.462Z,101700.59
2023-02-25T19:19:17.322Z,101712.34
2023-02-25T19:21:45.121Z,101714.41
2023-02-25T19:24:13.207Z,101712.59
2023-02-25T19:26:41.710Z,101717.00
2023-02-25T19:29:09.575Z,101716.13
2023-02-25T19:31:37.628Z,101712.59
2023-02-25T19:34:05.403Z,101717.25
2023-02-25T19:36:36.628Z,101718.19
2023-02-25T19:39:05.570Z,101711.13
2023-02-25T19:41:34.104Z,101717.53
2023-02-25T19:44:01.907Z,101714.25
2023-02-25T19:46:29.675Z,101718.88
2023-02-25T19:48:58.005Z,101720.91
2023-02-25T19:51:25.766Z,101723.66
2023-02-25T19:53:54.911Z,101725.53
2023-02-25T19:56:23.617Z,101727.34
2023-02-25T19:58:51.641Z,101732.75
2023-02-25T20:01:19.454Z,101732.91
2023-02-25T20:03:47.677Z,101733.00
2023-02-25T20:06:15.716Z,101734.78
2023-02-25T20:08:45.801Z,101740.22
2023-02-25T20:11:14.961Z,101753.63
2023-02-25T20:13:42.832Z,101745.72
2023-02-25T20:16:10.615Z,101750.28
2023-02-25T20:18:38.878Z,101755.59
2023-02-25T20:21:07.314Z,101752.00
2023-02-25T20:23:35.400Z,101766.22
2023-02-25T20:26:05.060Z,101755.66
2023-02-25T20:28:34.456Z,101764.63
2023-02-25T20:31:07.525Z,101756.88
2023-02-25T20:33:36.341Z,101762.22
2023-02-25T20:36:18.168Z,101766.84
2023-02-25T20:39:05.322Z,101766.94
2023-02-25T20:41:33.347Z,101767.78
2023-02-25T20:44:02.712Z,101772.41
2023-02-25T20:46:30.704Z,101769.84
2023-02-25T20:48:58.739Z,101769.91
2023-02-25T20:51:26.921Z,101778.84
2023-02-25T20:53:55.330Z,101782.41
2023-02-25T20:56:25.742Z,101776.16
2023-02-25T20:58:54.842Z,101781.56
2023-02-25T21:01:24.216Z,101782.59
2023-02-25T21:03:52.096Z,101785.59
2023-02-25T21:06:22.795Z,101791.97
2023-02-25T21:08:51.669Z,101795.66
2023-02-25T21:11:19.523Z,101800.13
2023-02-25T21:13:47.658Z,101799.25
2023-02-25T21:16:16.980Z,101800.13
2023-02-25T21:18:46.948Z,101805.69
2023-02-25T21:21:16.875Z,101813.09
2023-02-25T21:23:45.068Z,101823.81
2023-02-25T21:26:13.708Z,101821.97
2023-02-25T21:28:42.110Z,101824.66
2023-02-25T21:31:13.154Z,101826.44
2023-02-25T21:33:41.301Z,101821.16
2023-02-25T21:36:12.023Z,101829.19
2023-02-25T21:38:40.432Z,101830.09
2023-02-25T21:41:09.863Z,101828.44
2023-02-25T21:43:38.135Z,101827.56
2023-02-25T21:46:07.732Z,101828.56
2023-02-25T21:48:35.519Z,101827.00
2023-02-25T21:51:03.572Z,101839.47
2023-02-25T21:53:32.853Z,101837.72
2023-02-25T21:56:10.170Z,101840.50
2023-02-25T21:58:38.125Z,101849.50
2023-02-25T22:01:14.027Z,101846.88
2023-02-25T22:03:42.301Z,101849.63
2023-02-25T22:06:10.779Z,101857.66
2023-02-25T22:08:40.896Z,101855.13
2023-02-25T22:11:12.604Z,101856.03
2023-02-25T22:13:40.494Z,101857.81
2023-02-25T22:16:08.571Z,101857.97
2023-02-25T22:18:36.906Z,101870.53
2023-02-25T22:21:06.493Z,101878.56
2023-02-25T22:23:34.298Z,101879.75
2023-02-25T22:26:05.142Z,101875.28
2023-02-25T22:28:33.319Z,101878.94
2023-02-25T22:31:01.225Z,101875.28
2023-02-25T22:33:29.500Z,101878.88
2023-02-25T22:35:59.033Z,101873.44
2023-02-25T22:38:29.178Z,101873.38
2023-02-25T22:40:56.966Z,101868.91
2023-02-25T22:43:26.128Z,101872.53
2023-02-25T22:45:53.980Z,101872.53
2023-02-25T22:48:21.719Z,101871.63
2023-02-25T22:50:50.606Z,101877.06
2023-02-25T22:53:18.399Z,101865.56
2023-02-25T22:55:46.232Z,101859.38
2023-02-25T22:58:13.987Z,101871.00
2023-02-25T23:00:44.414Z,101871.13
2023-02-25T23:03:12.348Z,101873.88
2023-02-25T23:05:42.198Z,101876.69
2023-02-25T23:08:09.980Z,101878.59
2023-02-25T23:10:37.755Z,101882.31
2023-02-25T23:13:08.064Z,101875.22
2023-02-25T23:15:36.994Z,101878.88
2023-02-25T23:18:08.640Z,101876.31
2023-02-25T23:20:38.862Z,101872.81
2023-02-25T23:23:09.408Z,101871.19
2023-02-25T23:25:39.145Z,101877.47
2023-02-25T23:28:08.806Z,101870.38
2023-02-25T23:30:38.712Z,101873.97
2023-02-25T23:33:07.845Z,101875.84
2023-02-25T23:35:36.971Z,101869.53
2023-02-25T23:38:04.681Z,101878.53
2023-02-25T23:40:33.082Z,101881.25
2023-02-25T23:43:00.870Z,101880.31
2023-02-25T23:45:28.789Z,101878.63
2023-02-25T23:47:56.962Z,101881.31
2023-02-25T23:50:26.935Z,101888.50
2023-02-25T23:52:55.348Z,101885.91
2023-02-25T23:55:23.104Z,101893.94
2023-02-25T23:57:50.939Z,101893.09
